Alley Springs, Missouri
Current Conditions -  °F | °C
As of 4:53 PM on Saturday 25 Oct 2014 (Local Time) from KUNO Reporting Station
Clear Clear  
Wind Chill: 82°   Ceiling: Unl
Heat Index: 82°   Visibility: 10mi
Dew Point: 60°   Wind: 5mph
Humidity: 47%   Direction: 270°W
Pressure: 30.04"   Gusts: NA
Location:  37.1833°N, 91.4819°W
Report Text: KUNO 252153Z AUTO 27004KT 10SM CLR 28/16 A3004 RMK AO2 SLP162 T02780156
Loading
Personal Weather Stations






























Interactive Weather Map New forecast layout! Learn more

10-Day Weather Forecast

Advertisements
Track Severe Weather on mobile